Time;durP1;ratioP1;P1;durP2;ratioP2;P2;SDS_P1;SDS_P2;PMS_P1;PMS_P2;Temp;Humidity;BMP_temperature;BMP_pressure;BME280_temperature;BME280_humidity;BME280_pressure;Samples;Min_cycle;Max_cycle;Signal;HPM_P1;HPM_P2
2023/03/16 00:01:12;;;;;;;3.78;2.58;;;;;;;;;;5022957;28;20048;-73
2023/03/16 00:03:38;;;;;;;7.20;2.60;;;;;;;;;;5010534;28;20079;-73
2023/03/16 00:06:04;;;;;;;3.63;2.22;;;;;;;;;;5015323;28;20021;-73
2023/03/16 00:08:30;;;;;;;10.48;3.38;;;;;;;;;;5015650;28;20068;-73
2023/03/16 00:10:56;;;;;;;7.80;3.47;;;;;;;;;;5015108;28;20498;-73
2023/03/16 00:13:23;;;;;;;9.07;3.63;;;;;;;;;;5008795;28;20029;-74
2023/03/16 00:15:50;;;;;;;6.43;3.05;;;;;;;;;;5012593;28;20057;-74
2023/03/16 00:18:16;;;;;;;5.43;3.00;;;;;;;;;;5016845;28;20123;-73
2023/03/16 00:20:42;;;;;;;3.17;2.22;;;;;;;;;;5011327;28;20390;-74
2023/03/16 00:23:08;;;;;;;2.13;1.85;;;;;;;;;;5010173;28;20037;-74
2023/03/16 00:25:34;;;;;;;7.10;3.10;;;;;;;;;;5012912;28;20105;-72
2023/03/16 00:28:02;;;;;;;4.28;2.83;;;;;;;;;;5017283;28;20021;-73
2023/03/16 00:30:28;;;;;;;4.32;2.75;;;;;;;;;;5017310;28;20031;-73
2023/03/16 00:32:54;;;;;;;5.32;2.60;;;;;;;;;;5010567;28;20037;-72
2023/03/16 00:35:20;;;;;;;3.53;2.60;;;;;;;;;;5009664;28;20500;-73
2023/03/16 00:37:46;;;;;;;5.28;2.40;;;;;;;;;;5016669;28;20040;-73
2023/03/16 00:40:13;;;;;;;4.07;2.30;;;;;;;;;;5013882;28;20022;-74
2023/03/16 00:42:39;;;;;;;5.28;3.00;;;;;;;;;;5013415;28;20128;-73
2023/03/16 00:45:05;;;;;;;3.15;2.17;;;;;;;;;;5016758;28;20163;-73
2023/03/16 00:47:32;;;;;;;4.10;2.92;;;;;;;;;;5015556;28;20084;-72
2023/03/16 00:49:58;;;;;;;4.80;3.03;;;;;;;;;;5009279;28;20029;-73
2023/03/16 00:52:26;;;;;;;4.13;2.83;;;;;;;;;;5015056;28;20056;-73
2023/03/16 00:54:53;;;;;;;3.50;2.53;;;;;;;;;;5009817;28;20238;-75
2023/03/16 00:57:20;;;;;;;3.85;2.63;;;;;;;;;;5010618;28;20617;-73
2023/03/16 00:59:46;;;;;;;6.45;2.47;;;;;;;;;;5008687;28;20022;-75
2023/03/16 01:02:13;;;;;;;8.02;2.45;;;;;;;;;;5010676;28;20456;-73
2023/03/16 01:04:40;;;;;;;4.45;2.70;;;;;;;;;;5014334;28;20037;-73
2023/03/16 01:07:11;;;;;;;3.83;2.97;;;;;;;;;;5011045;28;20203;-74
2023/03/16 01:09:38;;;;;;;3.97;2.17;;;;;;;;;;5009135;28;20091;-75
2023/03/16 01:12:09;;;;;;;9.50;2.58;;;;;;;;;;5013677;28;20038;-74
2023/03/16 01:14:35;;;;;;;4.53;2.53;;;;;;;;;;5012415;28;20029;-75
2023/03/16 01:17:02;;;;;;;3.13;2.35;;;;;;;;;;5011573;28;20071;-73
2023/03/16 01:19:29;;;;;;;7.03;2.95;;;;;;;;;;5014893;28;20574;-73
2023/03/16 01:21:55;;;;;;;6.70;3.35;;;;;;;;;;5013387;28;20038;-72
2023/03/16 01:24:23;;;;;;;4.75;3.53;;;;;;;;;;5009925;28;20516;-72
2023/03/16 01:26:49;;;;;;;5.35;2.95;;;;;;;;;;5013293;28;20425;-72
2023/03/16 01:29:15;;;;;;;3.58;2.38;;;;;;;;;;5010497;28;20111;-73
2023/03/16 01:31:41;;;;;;;4.63;3.25;;;;;;;;;;5011263;28;20076;-72
2023/03/16 01:34:07;;;;;;;4.13;2.78;;;;;;;;;;5013070;28;20037;-72
2023/03/16 01:36:33;;;;;;;5.60;3.17;;;;;;;;;;5007249;28;20109;-72
2023/03/16 01:38:59;;;;;;;4.82;3.05;;;;;;;;;;5015633;28;20125;-73
2023/03/16 01:41:26;;;;;;;6.72;3.20;;;;;;;;;;5011951;28;20056;-73
2023/03/16 01:43:57;;;;;;;4.60;3.28;;;;;;;;;;5014205;28;20037;-72
2023/03/16 01:46:27;;;;;;;5.20;3.45;;;;;;;;;;5009144;28;20022;-73
2023/03/16 01:48:55;;;;;;;5.50;3.60;;;;;;;;;;5012672;28;20026;-74
2023/03/16 01:51:24;;;;;;;5.37;3.83;;;;;;;;;;5011303;28;20026;-73
2023/03/16 01:53:53;;;;;;;5.70;4.15;;;;;;;;;;5016345;28;20319;-74
2023/03/16 01:56:22;;;;;;;5.25;3.03;;;;;;;;;;5009270;28;20492;-72
2023/03/16 01:58:49;;;;;;;;;;;;;;;;;;5014565;28;20044;-72
2023/03/16 02:01:15;;;;;;;5.18;3.20;;;;;;;;;;5006711;28;19905;-72
2023/03/16 02:03:42;;;;;;;4.07;2.97;;;;;;;;;;5017735;28;20051;-72
2023/03/16 02:06:14;;;;;;;4.63;3.22;;;;;;;;;;5021573;28;20036;-72
2023/03/16 02:08:42;;;;;;;5.93;2.80;;;;;;;;;;5016002;28;20101;-74
2023/03/16 02:11:08;;;;;;;5.70;3.35;;;;;;;;;;5016243;28;20035;-72
2023/03/16 02:13:38;;;;;;;4.03;3.00;;;;;;;;;;5014631;28;20143;-72
2023/03/16 02:16:05;;;;;;;4.32;3.03;;;;;;;;;;5013010;28;20068;-72
2023/03/16 02:18:32;;;;;;;6.63;3.28;;;;;;;;;;5018675;28;20038;-73
2023/03/16 02:21:15;;;;;;;3.22;2.80;;;;;;;;;;5018662;28;20068;-73
2023/03/16 02:23:43;;;;;;;4.68;2.80;;;;;;;;;;5018620;28;20022;-72
2023/03/16 02:26:15;;;;;;;5.32;3.03;;;;;;;;;;5014658;28;20121;-72
2023/03/16 02:28:47;;;;;;;9.15;3.08;;;;;;;;;;5016221;28;20046;-72
2023/03/16 02:31:13;;;;;;;4.20;2.70;;;;;;;;;;5012854;28;20501;-72
2023/03/16 02:33:39;;;;;;;6.22;3.08;;;;;;;;;;5012097;28;20033;-73
2023/03/16 02:36:05;;;;;;;4.80;2.78;;;;;;;;;;5013523;28;20486;-72
2023/03/16 02:38:31;;;;;;;9.82;2.95;;;;;;;;;;5014773;28;20413;-73
2023/03/16 02:41:17;;;;;;;3.40;2.85;;;;;;;;;;5015561;28;20059;-72
2023/03/16 02:43:48;;;;;;;5.18;3.08;;;;;;;;;;5016394;28;20383;-72
2023/03/16 02:46:14;;;;;;;7.10;3.83;;;;;;;;;;5012217;28;20025;-72
2023/03/16 02:48:44;;;;;;;5.80;3.20;;;;;;;;;;5018564;28;20675;-72
2023/03/16 02:51:10;;;;;;;6.97;4.22;;;;;;;;;;5012491;28;20034;-72
2023/03/16 02:53:38;;;;;;;7.15;4.28;;;;;;;;;;5015365;28;20987;-72
2023/03/16 02:56:04;;;;;;;4.57;3.07;;;;;;;;;;5018492;28;20538;-72
2023/03/16 02:58:31;;;;;;;4.55;2.60;;;;;;;;;;5021137;28;20425;-72
2023/03/16 03:00:57;;;;;;;5.72;2.72;;;;;;;;;;5016639;28;20438;-72
2023/03/16 03:03:23;;;;;;;3.83;2.55;;;;;;;;;;5016629;28;20474;-71
2023/03/16 03:05:49;;;;;;;3.70;2.88;;;;;;;;;;5015465;28;20050;-73
2023/03/16 03:08:15;;;;;;;7.13;3.38;;;;;;;;;;5018527;28;20493;-72
2023/03/16 03:10:41;;;;;;;7.78;3.60;;;;;;;;;;5015305;28;20393;-73
2023/03/16 03:13:07;;;;;;;4.57;2.88;;;;;;;;;;5011921;28;20038;-72
2023/03/16 03:15:34;;;;;;;4.88;3.38;;;;;;;;;;5011609;28;20026;-72
2023/03/16 03:18:00;;;;;;;3.78;2.53;;;;;;;;;;5018024;28;20037;-72
2023/03/16 03:20:26;;;;;;;4.13;2.83;;;;;;;;;;5015258;28;20073;-73
2023/03/16 03:22:52;;;;;;;4.80;3.00;;;;;;;;;;5019282;28;20045;-73
2023/03/16 03:25:19;;;;;;;6.28;2.90;;;;;;;;;;5011996;28;20060;-72
2023/03/16 03:27:45;;;;;;;6.32;3.17;;;;;;;;;;5011098;28;20109;-73
2023/03/16 03:30:13;;;;;;;5.78;3.97;;;;;;;;;;5019517;28;20056;-72
2023/03/16 03:32:40;;;;;;;4.35;2.33;;;;;;;;;;5013738;28;20129;-73
2023/03/16 03:35:11;;;;;;;3.90;2.65;;;;;;;;;;5010514;28;20544;-72
2023/03/16 03:37:37;;;;;;;5.40;2.42;;;;;;;;;;5015760;28;20444;-73
2023/03/16 03:40:04;;;;;;;2.83;2.40;;;;;;;;;;5017814;28;20496;-73
2023/03/16 03:42:30;;;;;;;3.20;2.72;;;;;;;;;;5012519;28;20153;-72
2023/03/16 03:44:56;;;;;;;3.58;1.85;;;;;;;;;;5010295;28;20061;-73
2023/03/16 03:47:22;;;;;;;2.85;2.22;;;;;;;;;;5012732;28;20655;-73
2023/03/16 03:49:48;;;;;;;2.92;1.80;;;;;;;;;;5011044;28;20025;-72
2023/03/16 03:52:14;;;;;;;2.40;1.90;;;;;;;;;;5015283;28;20037;-73
2023/03/16 03:54:40;;;;;;;3.35;2.20;;;;;;;;;;5013393;28;20520;-72
2023/03/16 03:57:09;;;;;;;2.92;2.00;;;;;;;;;;5014148;28;20120;-72
2023/03/16 03:59:41;;;;;;;6.97;2.50;;;;;;;;;;5021133;28;20033;-72
2023/03/16 04:02:08;;;;;;;3.20;2.10;;;;;;;;;;5010388;28;20029;-73
2023/03/16 04:04:34;;;;;;;2.67;2.20;;;;;;;;;;5015709;28;20025;-73
2023/03/16 04:07:00;;;;;;;2.80;1.95;;;;;;;;;;5006222;28;20052;-72
2023/03/16 04:09:26;;;;;;;3.50;1.98;;;;;;;;;;5006610;28;20166;-72
2023/03/16 04:11:52;;;;;;;6.60;2.15;;;;;;;;;;5007306;28;20233;-73
2023/03/16 04:14:18;;;;;;;4.47;2.22;;;;;;;;;;5006429;28;20014;-73
2023/03/16 04:16:44;;;;;;;3.28;2.17;;;;;;;;;;5007647;28;20572;-73
2023/03/16 04:19:11;;;;;;;5.15;2.67;;;;;;;;;;5007230;28;20073;-74
2023/03/16 04:21:37;;;;;;;2.28;1.70;;;;;;;;;;5007590;28;20061;-73
2023/03/16 04:24:04;;;;;;;2.83;1.80;;;;;;;;;;5007446;28;20026;-73
2023/03/16 04:26:31;;;;;;;2.20;1.65;;;;;;;;;;5007154;28;20018;-73
2023/03/16 04:28:57;;;;;;;3.80;2.40;;;;;;;;;;5006910;28;20128;-75
2023/03/16 04:31:23;;;;;;;3.67;1.92;;;;;;;;;;5007041;28;20048;-73
2023/03/16 04:33:53;;;;;;;5.72;1.77;;;;;;;;;;5006910;28;20045;-73
2023/03/16 04:36:23;;;;;;;1.90;1.70;;;;;;;;;;5005741;28;20026;-73
2023/03/16 04:38:49;;;;;;;4.45;2.00;;;;;;;;;;5018531;28;20030;-73
2023/03/16 04:41:15;;;;;;;2.03;1.52;;;;;;;;;;5026635;28;20549;-74
2023/03/16 04:43:42;;;;;;;4.82;1.98;;;;;;;;;;5026827;28;20105;-73
2023/03/16 04:46:08;;;;;;;2.08;1.35;;;;;;;;;;5026823;28;20101;-73
2023/03/16 04:48:35;;;;;;;4.18;1.80;;;;;;;;;;5026946;28;20479;-73
2023/03/16 04:51:03;;;;;;;3.25;2.05;;;;;;;;;;5026643;28;20025;-72
2023/03/16 04:53:30;;;;;;;3.20;1.55;;;;;;;;;;5025506;28;20580;-73
2023/03/16 04:55:56;;;;;;;2.15;1.60;;;;;;;;;;5026933;28;20031;-72
2023/03/16 04:58:23;;;;;;;2.97;1.88;;;;;;;;;;5026594;28;20157;-73
2023/03/16 05:00:51;;;;;;;3.78;1.88;;;;;;;;;;5026444;28;20092;-73
2023/03/16 05:03:17;;;;;;;3.67;1.33;;;;;;;;;;5026450;28;20040;-73
2023/03/16 05:05:44;;;;;;;2.83;1.95;;;;;;;;;;5026518;28;20026;-73
2023/03/16 05:08:11;;;;;;;1.88;1.35;;;;;;;;;;5026754;28;20401;-73
2023/03/16 05:10:40;;;;;;;2.22;1.77;;;;;;;;;;5026660;28;20037;-72
2023/03/16 05:13:09;;;;;;;2.13;1.58;;;;;;;;;;5026688;28;20033;-73
2023/03/16 05:15:35;;;;;;;2.45;1.88;;;;;;;;;;5026480;28;20053;-72
2023/03/16 05:18:01;;;;;;;2.38;1.65;;;;;;;;;;5026326;28;20041;-71
2023/03/16 05:20:27;;;;;;;2.33;1.20;;;;;;;;;;5026264;28;20030;-72
2023/03/16 05:22:53;;;;;;;1.70;1.58;;;;;;;;;;5025892;28;20540;-72
2023/03/16 05:25:19;;;;;;;1.80;1.55;;;;;;;;;;5024983;28;20040;-72
2023/03/16 05:27:47;;;;;;;1.50;1.40;;;;;;;;;;5025952;28;20079;-73
2023/03/16 05:30:15;;;;;;;2.50;1.30;;;;;;;;;;5026356;28;20029;-73
2023/03/16 05:32:41;;;;;;;3.22;1.65;;;;;;;;;;5024488;28;20036;-74
2023/03/16 05:35:08;;;;;;;4.82;1.20;;;;;;;;;;5025135;28;20052;-73
2023/03/16 05:37:36;;;;;;;7.32;1.42;;;;;;;;;;5026066;28;20041;-73
2023/03/16 05:40:10;;;;;;;4.23;1.40;;;;;;;;;;5032026;28;20029;-73
2023/03/16 05:42:36;;;;;;;3.35;1.40;;;;;;;;;;5032190;28;20033;-72
2023/03/16 05:45:02;;;;;;;1.80;1.33;;;;;;;;;;5032205;28;20072;-72
2023/03/16 05:47:28;;;;;;;2.20;1.65;;;;;;;;;;5032345;28;20037;-74
2023/03/16 05:49:54;;;;;;;1.52;1.42;;;;;;;;;;5032218;28;20014;-73
2023/03/16 05:52:20;;;;;;;1.40;1.30;;;;;;;;;;5032710;28;20029;-73
2023/03/16 05:54:46;;;;;;;1.67;1.25;;;;;;;;;;5032844;28;20536;-72
2023/03/16 05:57:12;;;;;;;1.67;1.35;;;;;;;;;;5032025;28;20038;-73
2023/03/16 05:59:38;;;;;;;1.83;1.48;;;;;;;;;;5032245;28;20033;-74
2023/03/16 06:02:04;;;;;;;3.33;2.42;;;;;;;;;;5032144;28;20040;-72
2023/03/16 06:04:30;;;;;;;3.13;1.38;;;;;;;;;;5032591;28;20104;-75
2023/03/16 06:06:56;;;;;;;5.07;2.05;;;;;;;;;;5031512;28;20132;-76
2023/03/16 06:09:22;;;;;;;5.75;1.35;;;;;;;;;;5034363;28;20033;-77
2023/03/16 06:11:48;;;;;;;3.15;1.70;;;;;;;;;;5035009;28;20021;-74
2023/03/16 06:14:14;;;;;;;3.15;1.50;;;;;;;;;;5035898;28;20517;-76
2023/03/16 06:16:40;;;;;;;1.98;1.85;;;;;;;;;;5035346;28;20025;-73
2023/03/16 06:19:06;;;;;;;2.10;1.80;;;;;;;;;;5033117;28;20073;-73
2023/03/16 06:21:32;;;;;;;5.47;3.40;;;;;;;;;;5032051;28;20029;-73
2023/03/16 06:23:58;;;;;;;3.42;2.25;;;;;;;;;;5032766;28;20378;-73
2023/03/16 06:26:24;;;;;;;3.92;2.00;;;;;;;;;;5032861;28;20180;-73
2023/03/16 06:28:50;;;;;;;4.50;2.13;;;;;;;;;;5033345;28;20064;-74
2023/03/16 06:31:17;;;;;;;2.58;2.05;;;;;;;;;;5032247;28;20115;-75
2023/03/16 06:33:43;;;;;;;4.38;2.35;;;;;;;;;;5032387;28;20021;-74
2023/03/16 06:36:10;;;;;;;3.63;2.00;;;;;;;;;;5024361;28;20030;-74
2023/03/16 06:38:36;;;;;;;2.85;2.00;;;;;;;;;;5024285;28;20079;-75
2023/03/16 06:41:02;;;;;;;3.80;1.35;;;;;;;;;;5037766;28;20025;-73
2023/03/16 06:43:28;;;;;;;2.20;1.77;;;;;;;;;;5040440;28;20052;-73
2023/03/16 06:45:54;;;;;;;3.97;2.35;;;;;;;;;;5038466;28;20049;-74
2023/03/16 06:48:20;;;;;;;6.88;4.00;;;;;;;;;;5038370;28;20029;-75
2023/03/16 06:50:46;;;;;;;5.32;2.95;;;;;;;;;;5027358;28;20033;-73
2023/03/16 06:53:12;;;;;;;2.60;2.22;;;;;;;;;;5028320;28;20044;-73
2023/03/16 06:55:38;;;;;;;4.30;2.85;;;;;;;;;;5028502;28;20033;-73
2023/03/16 06:58:04;;;;;;;7.03;2.30;;;;;;;;;;5028357;28;20512;-73
2023/03/16 07:00:32;;;;;;;5.90;2.47;;;;;;;;;;5027945;28;20053;-73
2023/03/16 07:02:59;;;;;;;10.32;3.90;;;;;;;;;;5038067;28;20380;-73
2023/03/16 07:05:25;;;;;;;2.50;2.17;;;;;;;;;;5031490;28;20477;-73
2023/03/16 07:07:51;;;;;;;6.75;2.28;;;;;;;;;;5034469;28;20037;-74
2023/03/16 07:10:18;;;;;;;5.47;2.30;;;;;;;;;;5038958;28;20025;-73
2023/03/16 07:12:44;;;;;;;5.25;2.80;;;;;;;;;;5039637;28;20056;-74
2023/03/16 07:15:10;;;;;;;15.32;6.57;;;;;;;;;;5037460;28;20261;-76
2023/03/16 07:17:37;;;;;;;13.10;6.00;;;;;;;;;;5035277;28;20121;-73
2023/03/16 07:20:09;;;;;;;5.40;3.50;;;;;;;;;;5035380;28;20025;-74
2023/03/16 07:22:35;;;;;;;8.27;4.07;;;;;;;;;;5032490;28;20013;-74
2023/03/16 07:25:01;;;;;;;6.53;2.47;;;;;;;;;;5033904;28;20231;-74
2023/03/16 07:27:28;;;;;;;4.05;3.20;;;;;;;;;;5036044;28;20025;-74
2023/03/16 07:29:54;;;;;;;15.52;3.72;;;;;;;;;;5039560;28;20041;-73
2023/03/16 07:32:20;;;;;;;7.53;3.42;;;;;;;;;;5032962;28;20112;-75
2023/03/16 07:34:46;;;;;;;6.60;3.30;;;;;;;;;;5026487;28;20020;-75
2023/03/16 07:37:12;;;;;;;4.55;2.22;;;;;;;;;;5026150;28;20520;-75
2023/03/16 07:39:39;;;;;;;4.10;2.65;;;;;;;;;;5027878;28;20029;-74
2023/03/16 07:42:05;;;;;;;3.45;1.83;;;;;;;;;;5028179;28;20017;-74
2023/03/16 07:44:31;;;;;;;3.42;2.17;;;;;;;;;;5028547;28;20025;-74
2023/03/16 07:46:57;;;;;;;5.63;2.25;;;;;;;;;;5028196;28;20113;-72
2023/03/16 07:49:23;;;;;;;3.55;1.55;;;;;;;;;;5027398;28;20116;-73
2023/03/16 07:51:49;;;;;;;3.10;1.75;;;;;;;;;;5028041;28;20025;-73
2023/03/16 07:54:15;;;;;;;2.38;1.75;;;;;;;;;;5028082;28;20029;-73
2023/03/16 07:56:41;;;;;;;4.93;1.77;;;;;;;;;;5027499;28;20025;-74
2023/03/16 07:59:08;;;;;;;1.98;1.63;;;;;;;;;;5027321;28;20029;-74
2023/03/16 08:01:34;;;;;;;1.92;1.65;;;;;;;;;;5027558;28;20053;-72
2023/03/16 08:04:00;;;;;;;1.52;1.30;;;;;;;;;;5028732;28;20067;-73
2023/03/16 08:06:26;;;;;;;8.60;1.83;;;;;;;;;;5027811;28;20022;-73
2023/03/16 08:08:53;;;;;;;2.80;1.98;;;;;;;;;;5027717;28;20367;-74
2023/03/16 08:11:22;;;;;;;3.30;2.08;;;;;;;;;;5027659;28;20034;-74
2023/03/16 08:13:56;;;;;;;4.13;1.70;;;;;;;;;;5027570;28;20379;-76
2023/03/16 08:16:25;;;;;;;2.13;1.63;;;;;;;;;;5026109;28;20084;-75
2023/03/16 08:18:51;;;;;;;;;;;;;;;;;;5025682;28;20037;-75
2023/03/16 08:21:18;;;;;;;1.95;1.25;;;;;;;;;;5027264;28;19909;-74
2023/03/16 08:23:48;;;;;;;3.88;1.35;;;;;;;;;;5027073;28;20097;-74
2023/03/16 08:26:16;;;;;;;2.08;1.45;;;;;;;;;;5027142;28;20473;-74
2023/03/16 08:28:45;;;;;;;1.50;1.40;;;;;;;;;;5028195;28;20045;-74
2023/03/16 08:31:12;;;;;;;4.85;1.48;;;;;;;;;;5037359;28;20099;-74
2023/03/16 08:33:38;;;;;;;6.90;1.70;;;;;;;;;;5038667;28;20180;-74
2023/03/16 08:36:05;;;;;;;3.90;1.35;;;;;;;;;;5039931;28;20188;-75
2023/03/16 08:38:32;;;;;;;3.80;1.70;;;;;;;;;;5039004;28;20038;-75
2023/03/16 08:40:58;;;;;;;2.58;1.90;;;;;;;;;;5037959;28;20087;-74
2023/03/16 08:43:28;;;;;;;5.47;2.90;;;;;;;;;;5035979;28;20068;-74
2023/03/16 08:45:54;;;;;;;1.95;1.65;;;;;;;;;;5037529;28;20062;-75
2023/03/16 08:48:21;;;;;;;2.88;1.92;;;;;;;;;;5037035;28;20194;-76
2023/03/16 08:50:47;;;;;;;3.53;1.73;;;;;;;;;;5036600;28;20033;-75
2023/03/16 08:53:13;;;;;;;1.80;1.67;;;;;;;;;;5037078;28;20033;-73
2023/03/16 08:55:43;;;;;;;5.30;1.95;;;;;;;;;;5036050;28;20040;-76
2023/03/16 08:58:09;;;;;;;3.72;1.48;;;;;;;;;;5037538;28;20037;-74
2023/03/16 09:00:36;;;;;;;1.77;1.67;;;;;;;;;;5035841;28;20057;-74
2023/03/16 09:03:02;;;;;;;4.00;2.03;;;;;;;;;;5036535;28;20100;-75
2023/03/16 09:05:29;;;;;;;3.60;1.92;;;;;;;;;;5037335;28;20021;-73
2023/03/16 09:07:55;;;;;;;5.03;2.63;;;;;;;;;;5035578;28;20029;-75
2023/03/16 09:10:22;;;;;;;1.77;1.65;;;;;;;;;;5035304;28;20033;-73
2023/03/16 09:12:51;;;;;;;2.88;1.42;;;;;;;;;;5036678;28;20083;-72
2023/03/16 09:15:18;;;;;;;3.15;1.20;;;;;;;;;;5036932;28;20033;-73
2023/03/16 09:17:45;;;;;;;2.10;1.50;;;;;;;;;;5036747;28;20042;-75
2023/03/16 09:20:16;;;;;;;7.07;2.15;;;;;;;;;;5036711;28;20221;-73
2023/03/16 09:22:42;;;;;;;2.10;1.35;;;;;;;;;;5036804;28;20028;-73
2023/03/16 09:25:10;;;;;;;2.25;1.63;;;;;;;;;;5035384;28;20313;-73
2023/03/16 09:27:36;;;;;;;2.67;1.15;;;;;;;;;;5036232;28;20037;-73
2023/03/16 09:30:06;;;;;;;4.63;1.30;;;;;;;;;;5037763;28;20057;-75
2023/03/16 09:32:32;;;;;;;4.80;1.45;;;;;;;;;;5037118;28;20025;-73
2023/03/16 09:34:58;;;;;;;3.88;1.63;;;;;;;;;;5037431;28;20250;-75
2023/03/16 09:37:25;;;;;;;2.83;1.48;;;;;;;;;;5036641;28;20076;-74
2023/03/16 09:39:51;;;;;;;6.78;1.77;;;;;;;;;;5036329;28;20066;-73
2023/03/16 09:42:18;;;;;;;3.05;1.98;;;;;;;;;;5035878;28;20033;-75
2023/03/16 09:45:05;;;;;;;3.70;1.48;;;;;;;;;;5036954;28;20025;-74
2023/03/16 09:47:34;;;;;;;3.38;1.90;;;;;;;;;;5036453;28;20283;-74
2023/03/16 09:50:02;;;;;;;6.57;2.45;;;;;;;;;;5037231;28;20029;-73
2023/03/16 09:52:49;;;;;;;5.97;1.60;;;;;;;;;;5036794;28;20025;-75
2023/03/16 09:55:22;;;;;;;4.50;2.28;;;;;;;;;;5036501;28;20037;-73
2023/03/16 09:57:50;;;;;;;4.90;1.77;;;;;;;;;;5036275;28;20496;-73
2023/03/16 10:00:17;;;;;;;1.27;0.90;;;;;;;;;;5036139;28;20448;-74
2023/03/16 10:02:43;;;;;;;1.98;1.33;;;;;;;;;;5035669;28;20034;-73
2023/03/16 10:05:12;;;;;;;1.38;1.20;;;;;;;;;;5035245;28;20022;-74
2023/03/16 10:07:38;;;;;;;3.50;1.63;;;;;;;;;;5036143;28;20039;-73
2023/03/16 10:10:18;;;;;;;1.83;1.35;;;;;;;;;;5035873;28;20243;-74
2023/03/16 10:12:47;;;;;;;3.15;1.50;;;;;;;;;;5035460;28;20053;-74
2023/03/16 10:15:22;;;;;;;4.55;1.38;;;;;;;;;;5035529;28;20029;-74
2023/03/16 10:17:48;;;;;;;3.50;1.83;;;;;;;;;;5035365;28;20377;-72
2023/03/16 10:20:16;;;;;;;1.77;1.48;;;;;;;;;;5034949;28;20041;-72
2023/03/16 10:22:43;;;;;;;3.97;1.95;;;;;;;;;;5034576;28;20037;-77
2023/03/16 10:25:25;;;;;;;2.55;1.92;;;;;;;;;;5036670;28;20021;-77
2023/03/16 10:27:51;;;;;;;1.85;1.75;;;;;;;;;;5037673;28;20029;-77
2023/03/16 10:30:26;;;;;;;2.08;1.40;;;;;;;;;;5039327;28;20253;-77
2023/03/16 10:32:52;;;;;;;3.13;1.17;;;;;;;;;;5039064;28;20028;-75
2023/03/16 10:35:21;;;;;;;2.00;1.63;;;;;;;;;;5038089;28;20276;-77
2023/03/16 10:37:48;;;;;;;1.50;1.40;;;;;;;;;;5038960;28;20113;-77
2023/03/16 10:40:15;;;;;;;2.08;1.40;;;;;;;;;;5039343;28;20029;-74
2023/03/16 10:42:41;;;;;;;2.92;1.38;;;;;;;;;;5037510;28;20258;-75
2023/03/16 10:45:22;;;;;;;2.40;1.70;;;;;;;;;;5039495;28;20107;-74
2023/03/16 10:47:48;;;;;;;3.22;1.55;;;;;;;;;;5038884;28;20051;-73
2023/03/16 10:50:15;;;;;;;2.35;1.50;;;;;;;;;;5038741;28;20048;-74
2023/03/16 10:52:45;;;;;;;2.15;1.80;;;;;;;;;;5037850;28;20067;-74
2023/03/16 10:55:16;;;;;;;3.75;1.77;;;;;;;;;;5030901;28;20057;-75
2023/03/16 10:57:44;;;;;;;6.22;1.90;;;;;;;;;;5027866;28;20033;-74
2023/03/16 11:00:14;;;;;;;1.88;1.50;;;;;;;;;;5028812;28;20017;-73
2023/03/16 11:02:40;;;;;;;2.95;1.40;;;;;;;;;;5028072;28;20017;-74
2023/03/16 11:05:14;;;;;;;2.65;1.60;;;;;;;;;;5028338;28;20501;-76
2023/03/16 11:07:46;;;;;;;1.55;1.10;;;;;;;;;;5027948;28;20079;-72
2023/03/16 11:10:24;;;;;;;1.52;1.15;;;;;;;;;;5027651;28;20025;-73
2023/03/16 11:12:51;;;;;;;2.38;1.45;;;;;;;;;;5026698;28;20026;-74
2023/03/16 11:15:17;;;;;;;2.08;1.25;;;;;;;;;;5029187;28;20690;-74
2023/03/16 11:17:50;;;;;;;3.35;1.90;;;;;;;;;;5028332;28;20429;-75
2023/03/16 11:20:27;;;;;;;2.67;2.05;;;;;;;;;;5028509;28;20117;-71
2023/03/16 11:22:53;;;;;;;5.68;2.53;;;;;;;;;;5028646;28;20493;-75
2023/03/16 11:25:29;;;;;;;4.22;1.92;;;;;;;;;;5027871;28;20034;-73
2023/03/16 11:28:15;;;;;;;2.15;1.90;;;;;;;;;;5027427;28;20025;-74
2023/03/16 11:30:54;;;;;;;1.90;1.45;;;;;;;;;;5028784;28;20442;-74
2023/03/16 11:33:20;;;;;;;1.77;1.58;;;;;;;;;;5028301;28;20032;-75
2023/03/16 11:35:50;;;;;;;1.40;1.30;;;;;;;;;;5028483;28;20025;-75
2023/03/16 11:38:21;;;;;;;1.95;1.45;;;;;;;;;;5030033;28;20119;-74
2023/03/16 11:40:52;;;;;;;1.02;0.88;;;;;;;;;;5032172;28;20025;-74
2023/03/16 11:43:25;;;;;;;1.88;1.75;;;;;;;;;;5031637;28;20025;-73
2023/03/16 11:46:02;;;;;;;1.88;1.65;;;;;;;;;;5029620;28;20026;-73
2023/03/16 11:48:35;;;;;;;1.85;0.98;;;;;;;;;;5049575;28;20025;-73
2023/03/16 11:51:05;;;;;;;3.22;1.55;;;;;;;;;;5046997;28;20024;-74
2023/03/16 11:53:40;;;;;;;1.45;1.35;;;;;;;;;;5030309;28;20048;-73
2023/03/16 11:56:06;;;;;;;1.27;1.17;;;;;;;;;;5029370;28;20112;-73
2023/03/16 11:58:51;;;;;;;3.10;1.50;;;;;;;;;;5030303;28;20280;-73
2023/03/16 12:01:23;;;;;;;2.58;1.08;;;;;;;;;;5030465;28;20041;-73
2023/03/16 12:04:06;;;;;;;1.83;1.60;;;;;;;;;;5030034;28;20021;-74
2023/03/16 12:06:51;;;;;;;3.33;1.52;;;;;;;;;;5029605;28;20369;-74
2023/03/16 12:09:34;;;;;;;2.70;1.45;;;;;;;;;;5029360;28;20029;-74
2023/03/16 12:12:22;;;;;;;2.35;1.30;;;;;;;;;;5027443;28;20406;-76
2023/03/16 12:15:07;;;;;;;1.98;1.77;;;;;;;;;;5027289;28;20493;-74
2023/03/16 12:17:36;;;;;;;3.70;2.03;;;;;;;;;;5027626;28;20045;-74
2023/03/16 12:20:04;;;;;;;5.87;1.50;;;;;;;;;;5027975;28;20025;-74
2023/03/16 12:22:37;;;;;;;1.88;1.10;;;;;;;;;;5027070;28;20084;-73
2023/03/16 12:25:04;;;;;;;3.05;1.58;;;;;;;;;;5027812;28;20044;-73
2023/03/16 12:27:35;;;;;;;3.42;2.08;;;;;;;;;;5026614;28;20072;-73
2023/03/16 12:30:10;;;;;;;3.10;1.23;;;;;;;;;;5026371;28;20539;-75
2023/03/16 12:32:42;;;;;;;1.92;1.42;;;;;;;;;;5027140;28;20028;-74
2023/03/16 12:35:25;;;;;;;2.50;1.58;;;;;;;;;;5027161;28;20116;-74
2023/03/16 12:37:59;;;;;;;3.17;1.83;;;;;;;;;;5026333;28;20429;-75
2023/03/16 12:40:39;;;;;;;4.40;2.63;;;;;;;;;;5026800;28;20105;-76
2023/03/16 12:43:11;;;;;;;4.70;1.67;;;;;;;;;;5026529;28;20521;-75
2023/03/16 12:45:40;;;;;;;2.47;1.75;;;;;;;;;;5026597;28;20033;-75
2023/03/16 12:48:13;;;;;;;4.00;1.20;;;;;;;;;;5026334;28;20036;-75
2023/03/16 12:50:53;;;;;;;5.45;2.80;;;;;;;;;;5026612;28;20021;-76
2023/03/16 12:53:41;;;;;;;3.83;1.92;;;;;;;;;;5026949;28;20028;-74
2023/03/16 12:56:08;;;;;;;3.28;1.70;;;;;;;;;;5024105;28;20818;-74
2023/03/16 12:58:35;;;;;;;2.88;1.55;;;;;;;;;;5026287;28;20087;-73
2023/03/16 13:01:02;;;;;;;3.85;1.80;;;;;;;;;;5026542;28;20076;-75
2023/03/16 13:03:28;;;;;;;1.55;1.20;;;;;;;;;;5026774;28;20036;-73
2023/03/16 13:05:58;;;;;;;3.60;2.13;;;;;;;;;;5024315;28;20033;-74
2023/03/16 13:08:26;;;;;;;1.95;1.75;;;;;;;;;;5026726;28;20029;-75
2023/03/16 13:11:03;;;;;;;2.22;1.58;;;;;;;;;;5026744;28;20040;-74
2023/03/16 13:13:29;;;;;;;2.67;1.38;;;;;;;;;;5026573;28;20092;-75
2023/03/16 13:16:09;;;;;;;3.13;1.60;;;;;;;;;;5026675;28;20124;-75
2023/03/16 13:18:40;;;;;;;4.03;2.25;;;;;;;;;;5025759;28;20064;-75
2023/03/16 13:21:20;;;;;;;3.10;1.92;;;;;;;;;;5025167;28;20032;-75
2023/03/16 13:23:46;;;;;;;1.77;1.23;;;;;;;;;;5025028;28;20029;-75
2023/03/16 13:26:12;;;;;;;5.90;1.75;;;;;;;;;;5026310;28;20104;-74
2023/03/16 13:28:39;;;;;;;2.97;1.42;;;;;;;;;;5024238;28;20473;-76
2023/03/16 13:31:06;;;;;;;2.33;1.50;;;;;;;;;;5026431;28;20105;-76
2023/03/16 13:33:37;;;;;;;3.65;1.85;;;;;;;;;;5026236;28;20037;-74
2023/03/16 13:36:05;;;;;;;6.80;1.35;;;;;;;;;;5026554;28;20029;-74
2023/03/16 13:38:31;;;;;;;2.97;1.73;;;;;;;;;;5026253;28;20477;-75
2023/03/16 13:41:01;;;;;;;1.70;1.33;;;;;;;;;;5033976;28;20079;-74
2023/03/16 13:43:30;;;;;;;2.08;1.35;;;;;;;;;;5046228;28;20437;-75
2023/03/16 13:45:57;;;;;;;1.23;1.13;;;;;;;;;;5044302;28;20083;-77
2023/03/16 13:48:23;;;;;;;1.98;1.30;;;;;;;;;;5044664;28;20136;-75
2023/03/16 13:50:56;;;;;;;2.30;1.38;;;;;;;;;;5043961;28;20112;-76
2023/03/16 13:53:29;;;;;;;2.33;1.52;;;;;;;;;;5045769;28;20013;-73
2023/03/16 13:55:56;;;;;;;5.25;1.15;;;;;;;;;;5046979;28;20385;-74
2023/03/16 13:58:26;;;;;;;0.90;0.90;;;;;;;;;;5045086;28;20041;-75
2023/03/16 14:01:00;;;;;;;2.90;1.20;;;;;;;;;;5048125;28;20032;-74
2023/03/16 14:03:34;;;;;;;1.45;0.90;;;;;;;;;;5049528;28;20029;-75
2023/03/16 14:06:00;;;;;;;2.33;1.52;;;;;;;;;;5049637;28;20039;-75
2023/03/16 14:08:28;;;;;;;1.98;1.55;;;;;;;;;;5047970;28;20100;-75
2023/03/16 14:10:55;;;;;;;1.52;1.20;;;;;;;;;;5048810;28;20021;-75
2023/03/16 14:13:25;;;;;;;4.63;1.58;;;;;;;;;;5049116;28;20024;-73
2023/03/16 14:15:53;;;;;;;1.88;1.40;;;;;;;;;;5049254;28;20039;-75
2023/03/16 14:18:22;;;;;;;2.47;1.20;;;;;;;;;;5049341;28;20033;-77
2023/03/16 14:20:54;;;;;;;3.03;1.35;;;;;;;;;;5042691;28;20025;-76
2023/03/16 14:23:23;;;;;;;1.80;1.70;;;;;;;;;;5027756;28;20084;-76
2023/03/16 14:25:49;;;;;;;1.23;1.13;;;;;;;;;;5033327;28;20051;-78
2023/03/16 14:28:16;;;;;;;8.10;2.05;;;;;;;;;;5048768;28;20102;-79
2023/03/16 14:30:53;;;;;;;4.55;1.45;;;;;;;;;;5047190;28;20378;-76
2023/03/16 14:33:26;;;;;;;2.70;1.17;;;;;;;;;;5047749;28;20139;-76
2023/03/16 14:35:56;;;;;;;4.30;1.20;;;;;;;;;;5048753;28;20510;-76
2023/03/16 14:38:28;;;;;;;2.08;1.63;;;;;;;;;;5048834;28;20095;-76
2023/03/16 14:40:56;;;;;;;1.02;0.98;;;;;;;;;;5035663;28;20024;-75
2023/03/16 14:43:34;;;;;;;2.30;1.48;;;;;;;;;;5028865;28;20029;-77
2023/03/16 14:46:00;;;;;;;3.45;0.90;;;;;;;;;;5027669;28;20026;-76
2023/03/16 14:48:27;;;;;;;1.67;1.23;;;;;;;;;;5027463;28;20029;-77
2023/03/16 14:50:57;;;;;;;3.22;1.40;;;;;;;;;;5027659;28;20087;-76